createdAt,value
2017-12-03T00:01:40.903Z,23.87
2017-12-03T00:04:08.497Z,22.57
2017-12-03T00:06:36.092Z,23.00
2017-12-03T00:09:03.686Z,25.10
2017-12-03T00:11:31.313Z,26.70
2017-12-03T00:13:58.911Z,23.50
2017-12-03T00:16:26.498Z,23.43
2017-12-03T00:18:54.132Z,20.00
2017-12-03T00:21:21.697Z,23.07
2017-12-03T00:23:49.345Z,18.93
2017-12-03T00:26:16.918Z,20.23
2017-12-03T00:28:44.522Z,21.17
2017-12-03T00:31:12.101Z,20.03
2017-12-03T00:33:39.682Z,22.90
2017-12-03T00:36:07.289Z,23.10
2017-12-03T00:38:34.879Z,21.47
2017-12-03T00:41:03.242Z,22.50
2017-12-03T00:43:30.822Z,23.40
2017-12-03T00:45:58.422Z,24.30
2017-12-03T00:48:25.995Z,27.40
2017-12-03T00:50:54.349Z,25.20
2017-12-03T00:53:21.917Z,26.90
2017-12-03T00:55:49.514Z,26.53
2017-12-03T00:58:17.090Z,26.53
2017-12-03T01:00:44.729Z,25.03
2017-12-03T01:03:12.299Z,25.13
2017-12-03T01:05:39.889Z,24.70
2017-12-03T01:08:07.466Z,27.70
2017-12-03T01:10:35.057Z,24.90
2017-12-03T01:13:02.654Z,25.03
2017-12-03T01:15:30.251Z,27.93
2017-12-03T01:17:57.822Z,29.13
2017-12-03T01:20:25.419Z,28.43
2017-12-03T01:22:53.001Z,24.87
2017-12-03T01:25:20.611Z,19.77
2017-12-03T01:27:48.946Z,23.63
2017-12-03T01:30:16.545Z,24.87
2017-12-03T01:32:44.895Z,26.77
2017-12-03T01:35:12.485Z,25.43
2017-12-03T01:37:40.822Z,28.47
2017-12-03T01:40:08.431Z,28.13
2017-12-03T01:42:36.014Z,26.20
2017-12-03T01:45:03.592Z,29.17
2017-12-03T01:47:31.190Z,28.43
2017-12-03T01:49:58.761Z,27.33
2017-12-03T01:52:26.374Z,26.93
2017-12-03T01:54:53.955Z,26.03
2017-12-03T01:57:21.551Z,28.20
2017-12-03T01:59:49.126Z,27.67
2017-12-03T02:02:16.718Z,26.27
2017-12-03T02:04:44.294Z,28.60
2017-12-03T02:07:11.889Z,28.80
2017-12-03T02:09:39.470Z,28.37
2017-12-03T02:12:07.070Z,28.03
2017-12-03T02:14:34.646Z,30.57
2017-12-03T02:17:03.005Z,29.97
2017-12-03T02:19:30.602Z,29.50
2017-12-03T02:21:58.195Z,30.03
2017-12-03T02:24:25.771Z,30.30
2017-12-03T02:26:53.379Z,29.57
2017-12-03T02:29:20.958Z,28.00
2017-12-03T02:31:48.559Z,28.23
2017-12-03T02:34:16.139Z,29.10
2017-12-03T02:36:44.501Z,29.20
2017-12-03T02:39:12.075Z,28.13
2017-12-03T02:41:40.439Z,27.93
2017-12-03T02:44:08.010Z,28.60
2017-12-03T02:46:35.612Z,27.73
2017-12-03T02:49:03.222Z,26.30
2017-12-03T02:51:30.832Z,26.80
2017-12-03T02:53:58.397Z,29.70
2017-12-03T02:56:26.024Z,29.00
2017-12-03T02:58:53.607Z,30.50
2017-12-03T03:01:21.187Z,29.73
2017-12-03T03:03:48.787Z,27.47
2017-12-03T03:06:16.353Z,29.47
2017-12-03T03:08:44.718Z,30.13
2017-12-03T03:11:12.293Z,28.47
2017-12-03T03:13:40.653Z,27.53
2017-12-03T03:16:09.019Z,31.47
2017-12-03T03:18:36.618Z,29.07
2017-12-03T03:21:04.213Z,28.47
2017-12-03T03:23:31.812Z,29.53
2017-12-03T03:25:59.386Z,29.13
2017-12-03T03:28:26.982Z,29.60
2017-12-03T03:30:54.568Z,26.77
2017-12-03T03:33:22.157Z,30.17
2017-12-03T03:35:50.499Z,29.40
2017-12-03T03:38:18.089Z,28.57
2017-12-03T03:40:45.658Z,28.80
2017-12-03T03:43:13.263Z,28.03
2017-12-03T03:45:40.838Z,26.90
2017-12-03T03:48:08.435Z,29.00
2017-12-03T03:50:36.773Z,28.17
2017-12-03T03:53:04.368Z,27.80
2017-12-03T03:55:31.939Z,27.97
2017-12-03T03:57:59.542Z,25.37
2017-12-03T04:00:27.126Z,28.20
2017-12-03T04:02:54.724Z,25.90
2017-12-03T04:05:22.297Z,26.90
2017-12-03T04:07:49.901Z,27.87
2017-12-03T04:10:17.479Z,26.40
2017-12-03T04:12:45.841Z,27.27
2017-12-03T04:15:13.415Z,28.27
2017-12-03T04:17:41.780Z,28.30
2017-12-03T04:20:09.368Z,27.63
2017-12-03T04:22:36.971Z,27.80
2017-12-03T04:25:04.566Z,26.30
2017-12-03T04:27:32.916Z,26.47
2017-12-03T04:30:00.510Z,28.07
2017-12-03T04:32:28.095Z,28.13
2017-12-03T04:34:55.689Z,26.63
2017-12-03T04:37:23.266Z,28.70
2017-12-03T04:39:50.866Z,28.00
2017-12-03T04:42:18.448Z,24.80
2017-12-03T04:44:46.050Z,29.63
2017-12-03T04:47:13.631Z,28.33
2017-12-03T04:49:41.234Z,25.50
2017-12-03T04:52:08.807Z,28.40
2017-12-03T04:54:36.414Z,29.13
2017-12-03T04:57:03.982Z,27.03
2017-12-03T04:59:31.577Z,27.60
2017-12-03T05:01:59.151Z,27.90
2017-12-03T05:04:26.755Z,26.47
2017-12-03T05:06:54.334Z,29.07
2017-12-03T05:09:21.926Z,29.60
2017-12-03T05:11:49.506Z,31.00
2017-12-03T05:14:17.108Z,25.20
2017-12-03T05:16:44.680Z,26.83
2017-12-03T05:19:12.275Z,28.13
2017-12-03T05:21:39.855Z,29.60
2017-12-03T05:24:07.451Z,29.53
2017-12-03T05:26:35.031Z,29.37
2017-12-03T05:29:02.604Z,28.30
2017-12-03T05:31:30.201Z,27.80
2017-12-03T05:33:57.774Z,29.63
2017-12-03T05:36:25.391Z,27.27
2017-12-03T05:38:52.970Z,27.73
2017-12-03T05:41:21.329Z,28.63
2017-12-03T05:43:48.907Z,28.53
2017-12-03T05:46:16.507Z,29.10
2017-12-03T05:48:44.080Z,28.90
2017-12-03T05:51:11.682Z,27.00
2017-12-03T05:53:40.022Z,29.57
2017-12-03T05:56:07.622Z,26.07
2017-12-03T05:58:35.194Z,30.23
2017-12-03T06:01:02.794Z,27.53
2017-12-03T06:03:30.367Z,26.17
2017-12-03T06:05:57.976Z,29.20
2017-12-03T06:08:25.555Z,28.73
2017-12-03T06:10:53.146Z,28.40
2017-12-03T06:13:20.713Z,30.93
2017-12-03T06:15:48.306Z,28.70
2017-12-03T06:18:15.887Z,30.53
2017-12-03T06:20:43.495Z,28.87
2017-12-03T06:23:11.070Z,31.30
2017-12-03T06:25:39.428Z,30.20
2017-12-03T06:28:07.023Z,29.10
2017-12-03T06:30:34.628Z,30.30
2017-12-03T06:33:02.202Z,32.47
2017-12-03T06:35:29.799Z,31.33
2017-12-03T06:37:57.379Z,30.47
2017-12-03T06:40:25.022Z,29.90
2017-12-03T06:42:53.354Z,28.20
2017-12-03T06:45:20.926Z,32.73
2017-12-03T06:47:48.535Z,29.43
2017-12-03T06:50:16.104Z,29.90
2017-12-03T06:52:44.467Z,30.60
2017-12-03T06:55:12.043Z,30.00
2017-12-03T06:57:39.638Z,29.70
2017-12-03T07:00:07.210Z,30.03
2017-12-03T07:02:35.582Z,29.70
2017-12-03T07:05:03.938Z,28.20
2017-12-03T07:07:31.530Z,28.70
2017-12-03T07:09:59.214Z,30.13
2017-12-03T07:12:26.890Z,31.40
2017-12-03T07:14:54.460Z,28.60
2017-12-03T07:17:22.064Z,29.63
2017-12-03T07:19:49.639Z,31.57
2017-12-03T07:22:17.237Z,30.70
2017-12-03T07:24:44.816Z,29.77
2017-12-03T07:27:12.414Z,29.77
2017-12-03T07:29:39.988Z,30.90
2017-12-03T07:32:07.595Z,32.27
2017-12-03T07:34:35.172Z,30.83
2017-12-03T07:37:03.631Z,30.67
2017-12-03T07:39:31.202Z,30.53
2017-12-03T07:41:58.804Z,30.50
2017-12-03T07:44:26.372Z,36.07
2017-12-03T07:46:53.971Z,39.40
2017-12-03T07:49:21.554Z,29.80
2017-12-03T07:51:49.910Z,28.40
2017-12-03T07:54:18.250Z,29.83
2017-12-03T07:56:45.856Z,27.07
2017-12-03T07:59:13.436Z,26.97
2017-12-03T08:01:41.013Z,29.37
2017-12-03T08:04:08.607Z,28.63
2017-12-03T08:06:36.187Z,28.37
2017-12-03T08:09:03.786Z,27.83
2017-12-03T08:11:31.370Z,28.37
2017-12-03T08:13:58.967Z,27.80
2017-12-03T08:16:26.546Z,26.50
2017-12-03T08:18:54.151Z,25.40
2017-12-03T08:21:21.722Z,24.87
2017-12-03T08:23:49.334Z,24.50
2017-12-03T08:26:17.674Z,24.03
2017-12-03T08:28:45.275Z,24.60
2017-12-03T08:31:12.858Z,20.67
2017-12-03T08:33:40.459Z,19.33
2017-12-03T08:36:08.032Z,20.37
2017-12-03T08:38:36.402Z,17.23
2017-12-03T08:41:03.983Z,15.90
2017-12-03T08:43:32.353Z,14.60
2017-12-03T08:46:00.686Z,16.17
2017-12-03T08:48:28.978Z,13.00
2017-12-03T08:50:56.562Z,13.40
2017-12-03T08:53:24.926Z,13.37
2017-12-03T08:55:52.506Z,14.33
2017-12-03T08:58:20.098Z,13.23
2017-12-03T09:00:47.670Z,13.13
2017-12-03T09:03:15.306Z,13.63
2017-12-03T09:05:42.884Z,12.00
2017-12-03T09:08:10.482Z,16.80
2017-12-03T09:10:38.062Z,14.70
2017-12-03T09:13:06.428Z,11.83
2017-12-03T09:15:34.790Z,12.47
2017-12-03T09:18:02.405Z,13.20
2017-12-03T09:20:29.984Z,13.27
2017-12-03T09:22:57.572Z,12.63
2017-12-03T09:25:25.179Z,13.87
2017-12-03T09:27:52.754Z,13.40
2017-12-03T09:30:20.347Z,12.73
2017-12-03T09:32:47.928Z,11.47
2017-12-03T09:35:16.286Z,11.77
2017-12-03T09:37:43.858Z,12.90
2017-12-03T09:40:11.461Z,13.70
2017-12-03T09:42:39.042Z,11.67
2017-12-03T09:45:06.637Z,13.90
2017-12-03T09:47:34.211Z,11.23
2017-12-03T09:50:01.820Z,12.43
2017-12-03T09:52:29.399Z,11.87
2017-12-03T09:54:56.999Z,13.77
2017-12-03T09:57:24.578Z,10.33
2017-12-03T09:59:52.181Z,11.07
2017-12-03T10:02:19.765Z,11.17
2017-12-03T10:04:47.374Z,11.13
2017-12-03T10:07:14.955Z,12.80
2017-12-03T10:09:42.563Z,12.33
2017-12-03T10:12:10.140Z,11.20
2017-12-03T10:14:37.731Z,11.80
2017-12-03T10:17:05.298Z,11.93
2017-12-03T10:19:32.885Z,11.10
2017-12-03T10:22:00.462Z,11.90
2017-12-03T10:24:28.085Z,13.80
2017-12-03T10:26:55.664Z,12.50
2017-12-03T10:29:23.230Z,13.33
2017-12-03T10:31:50.839Z,12.60
2017-12-03T10:34:18.424Z,11.83
2017-12-03T10:36:46.027Z,11.80
2017-12-03T10:39:13.603Z,12.20
2017-12-03T10:41:41.206Z,13.03
2017-12-03T10:44:08.774Z,10.57
2017-12-03T10:46:37.140Z,11.50
2017-12-03T10:49:05.478Z,12.03
2017-12-03T10:51:33.078Z,12.50
2017-12-03T10:54:00.647Z,13.63
2017-12-03T10:56:29.011Z,15.13
2017-12-03T10:58:56.591Z,12.93
2017-12-03T11:01:24.190Z,12.63
2017-12-03T11:03:51.762Z,13.50
2017-12-03T11:06:19.357Z,14.40
2017-12-03T11:08:46.941Z,13.90
2017-12-03T11:11:14.541Z,13.60
2017-12-03T11:13:42.122Z,12.63
2017-12-03T11:16:09.723Z,15.10
2017-12-03T11:18:37.299Z,14.27
2017-12-03T11:21:04.895Z,14.30
2017-12-03T11:23:32.471Z,14.47
2017-12-03T11:26:00.840Z,15.27
2017-12-03T11:28:28.440Z,15.47
2017-12-03T11:30:56.062Z,15.50
2017-12-03T11:33:23.639Z,15.93
2017-12-03T11:35:51.234Z,16.63
2017-12-03T11:38:18.806Z,16.17
2017-12-03T11:40:46.425Z,16.90
2017-12-03T11:43:14.003Z,17.47
2017-12-03T11:45:41.582Z,16.20
2017-12-03T11:48:09.190Z,16.60
2017-12-03T11:50:36.783Z,17.33
2017-12-03T11:53:04.483Z,18.57
2017-12-03T11:55:32.068Z,17.20
2017-12-03T11:58:00.434Z,16.90
2017-12-03T12:00:28.774Z,17.33
2017-12-03T12:02:56.387Z,17.53
2017-12-03T12:05:23.963Z,16.90
2017-12-03T12:07:51.562Z,18.03
2017-12-03T12:10:19.137Z,20.40
2017-12-03T12:12:46.734Z,19.40
2017-12-03T12:15:14.311Z,16.53
2017-12-03T12:17:41.903Z,20.30
2017-12-03T12:20:09.502Z,19.77
2017-12-03T12:22:37.146Z,20.07
2017-12-03T12:25:05.496Z,17.73
2017-12-03T12:27:33.099Z,19.93
2017-12-03T12:30:00.675Z,17.60
2017-12-03T12:32:29.042Z,20.33
2017-12-03T12:34:56.625Z,18.73
2017-12-03T12:37:24.222Z,17.57
2017-12-03T12:39:51.802Z,17.03
2017-12-03T12:42:20.174Z,19.00
2017-12-03T12:44:48.530Z,20.30
2017-12-03T12:47:16.129Z,19.90
2017-12-03T12:49:43.708Z,18.63
2017-12-03T12:52:11.307Z,20.80
2017-12-03T12:54:38.878Z,19.10
2017-12-03T12:57:06.450Z,17.57
2017-12-03T12:59:34.815Z,16.50
2017-12-03T13:02:02.394Z,18.73
2017-12-03T13:04:29.987Z,17.03
2017-12-03T13:06:57.561Z,18.73
2017-12-03T13:09:25.163Z,24.03
2017-12-03T13:11:55.251Z,20.27
2017-12-03T13:14:24.287Z,20.10
2017-12-03T13:16:52.862Z,19.83
2017-12-03T13:19:21.228Z,18.50
2017-12-03T13:21:49.568Z,18.70
2017-12-03T13:24:17.274Z,19.20
2017-12-03T13:26:45.647Z,20.63
2017-12-03T13:29:13.243Z,18.00
2017-12-03T13:31:40.809Z,18.27
2017-12-03T13:34:08.407Z,18.87
2017-12-03T13:36:35.978Z,20.03
2017-12-03T13:39:03.640Z,19.50
2017-12-03T13:41:31.216Z,19.63
2017-12-03T13:43:59.581Z,19.00
2017-12-03T13:46:27.166Z,18.87
2017-12-03T13:48:54.786Z,19.60
2017-12-03T13:51:22.366Z,19.37
2017-12-03T13:53:50.006Z,21.77
2017-12-03T13:56:17.617Z,22.90
2017-12-03T13:58:45.267Z,19.93
2017-12-03T14:01:14.483Z,19.40
2017-12-03T14:03:43.595Z,17.90
2017-12-03T14:06:11.260Z,17.80
2017-12-03T14:08:38.857Z,18.30
2017-12-03T14:11:06.435Z,17.83
2017-12-03T14:13:34.039Z,19.40
2017-12-03T14:16:01.615Z,20.43
2017-12-03T14:18:29.224Z,19.30
2017-12-03T14:20:57.654Z,18.63
2017-12-03T14:23:25.229Z,17.50
2017-12-03T14:25:53.607Z,18.40
2017-12-03T14:28:21.950Z,17.73
2017-12-03T14:30:49.546Z,17.10
2017-12-03T14:33:17.123Z,17.50
2017-12-03T14:35:44.714Z,16.80
2017-12-03T14:38:12.287Z,18.67
2017-12-03T14:40:39.896Z,20.50
2017-12-03T14:43:08.239Z,17.53
2017-12-03T14:45:35.834Z,20.27
2017-12-03T14:48:03.412Z,19.23
2017-12-03T14:50:31.012Z,19.70
2017-12-03T14:52:58.601Z,18.80
2017-12-03T14:55:26.202Z,20.07
2017-12-03T14:57:53.779Z,21.17
2017-12-03T15:00:21.383Z,18.13
2017-12-03T15:02:49.726Z,19.07
2017-12-03T15:05:17.321Z,17.97
2017-12-03T15:07:45.683Z,21.07
2017-12-03T15:10:14.052Z,18.90
2017-12-03T15:12:41.627Z,23.93
2017-12-03T15:15:09.253Z,22.33
2017-12-03T15:17:36.842Z,21.13
2017-12-03T15:20:05.223Z,22.33
2017-12-03T15:22:33.566Z,20.80
2017-12-03T15:25:01.164Z,21.90
2017-12-03T15:27:31.086Z,22.10
2017-12-03T15:29:59.455Z,20.67
2017-12-03T15:32:27.804Z,23.10
2017-12-03T15:34:56.243Z,21.50
2017-12-03T15:37:23.846Z,20.90
2017-12-03T15:39:51.426Z,23.77
2017-12-03T15:42:19.801Z,22.80
2017-12-03T15:44:48.142Z,23.60
2017-12-03T15:47:15.754Z,22.87
2017-12-03T15:49:43.331Z,22.17
2017-12-03T15:52:10.939Z,23.07
2017-12-03T15:54:38.532Z,23.40
2017-12-03T15:57:06.129Z,24.03
2017-12-03T15:59:33.705Z,21.20
2017-12-03T16:02:01.307Z,23.13
2017-12-03T16:04:29.647Z,24.03
2017-12-03T16:06:57.237Z,23.90
2017-12-03T16:09:25.579Z,21.43
2017-12-03T16:11:53.183Z,23.00
2017-12-03T16:14:21.558Z,19.00
2017-12-03T16:16:49.164Z,21.33
2017-12-03T16:19:16.742Z,20.70
2017-12-03T16:21:44.348Z,22.87
2017-12-03T16:24:11.929Z,23.77
2017-12-03T16:26:39.522Z,20.87
2017-12-03T16:29:07.115Z,22.93
2017-12-03T16:31:35.490Z,22.70
2017-12-03T16:34:03.834Z,20.43
2017-12-03T16:36:31.434Z,22.80
2017-12-03T16:38:59.009Z,22.67
2017-12-03T16:41:26.617Z,22.90
2017-12-03T16:43:54.210Z,21.97
2017-12-03T16:46:22.574Z,22.13
2017-12-03T16:48:50.919Z,22.60
2017-12-03T16:51:18.511Z,23.23
2017-12-03T16:53:46.082Z,27.37
2017-12-03T16:56:14.459Z,25.60
2017-12-03T16:58:42.043Z,30.13
2017-12-03T17:01:09.618Z,27.70
2017-12-03T17:03:37.219Z,27.77
2017-12-03T17:06:04.799Z,26.87
2017-12-03T17:08:32.399Z,25.40
2017-12-03T17:11:01.801Z,25.63
2017-12-03T17:13:30.226Z,24.90
2017-12-03T17:15:58.574Z,27.93
2017-12-03T17:18:26.182Z,25.53
2017-12-03T17:20:53.756Z,26.70
2017-12-03T17:23:21.366Z,22.80
2017-12-03T17:25:48.943Z,20.43
2017-12-03T17:28:17.313Z,21.70
2017-12-03T17:30:45.653Z,22.23
2017-12-03T17:33:13.255Z,20.90
2017-12-03T17:35:41.590Z,21.30
2017-12-03T17:38:10.058Z,21.87
2017-12-03T17:40:37.637Z,21.70
2017-12-03T17:43:05.255Z,22.97
2017-12-03T17:45:32.838Z,21.70
2017-12-03T17:48:01.216Z,19.30
2017-12-03T17:50:29.561Z,19.07
2017-12-03T17:52:57.155Z,21.53
2017-12-03T17:55:24.727Z,20.07
2017-12-03T17:57:52.326Z,18.30
2017-12-03T18:00:20.678Z,20.03
2017-12-03T18:02:49.429Z,21.20
2017-12-03T18:05:17.546Z,22.23
2017-12-03T18:07:45.824Z,21.00
2017-12-03T18:10:14.714Z,22.63
2017-12-03T18:12:44.867Z,20.67
2017-12-03T18:15:13.946Z,20.90
2017-12-03T18:17:42.096Z,20.53
2017-12-03T18:20:10.661Z,20.03
2017-12-03T18:22:40.404Z,19.27
2017-12-03T18:25:08.391Z,20.20
2017-12-03T18:27:36.447Z,20.03
2017-12-03T18:30:05.072Z,19.93
2017-12-03T18:32:33.651Z,18.00
2017-12-03T18:35:02.733Z,18.40
2017-12-03T18:37:30.840Z,18.20
2017-12-03T18:40:00.566Z,18.60
2017-12-03T18:42:28.900Z,20.10
2017-12-03T18:44:58.016Z,19.00
2017-12-03T18:47:26.733Z,18.33
2017-12-03T18:49:54.845Z,18.03
2017-12-03T18:52:23.984Z,18.30
2017-12-03T18:54:51.630Z,17.87
2017-12-03T18:57:19.202Z,19.40
2017-12-03T18:59:46.829Z,18.53
2017-12-03T19:02:14.398Z,18.70
2017-12-03T19:04:42.042Z,23.00
2017-12-03T19:07:09.649Z,22.60
2017-12-03T19:09:37.868Z,17.33
2017-12-03T19:12:05.545Z,16.70
2017-12-03T19:14:33.193Z,17.80
2017-12-03T19:17:01.286Z,18.67
2017-12-03T19:19:29.711Z,21.30
2017-12-03T19:21:58.098Z,18.50
2017-12-03T19:24:25.738Z,17.07
2017-12-03T19:26:54.087Z,18.20
2017-12-03T19:29:23.086Z,16.67
2017-12-03T19:31:52.878Z,14.60
2017-12-03T19:34:20.523Z,15.67
2017-12-03T19:36:48.870Z,16.90
2017-12-03T19:39:18.126Z,14.50
2017-12-03T19:41:45.836Z,15.80
2017-12-03T19:44:14.175Z,17.60
2017-12-03T19:46:41.774Z,17.40
2017-12-03T19:49:10.110Z,17.87
2017-12-03T19:51:37.735Z,17.43
2017-12-03T19:54:05.318Z,17.70
2017-12-03T19:56:32.960Z,18.80
2017-12-03T19:59:00.576Z,16.03
2017-12-03T20:01:28.174Z,17.57
2017-12-03T20:03:55.761Z,18.63
2017-12-03T20:06:23.355Z,21.13
2017-12-03T20:08:51.698Z,19.60
2017-12-03T20:11:19.290Z,17.00
2017-12-03T20:13:46.862Z,18.37
2017-12-03T20:16:15.230Z,18.80
2017-12-03T20:18:42.861Z,17.67
2017-12-03T20:21:10.506Z,17.43
2017-12-03T20:23:38.082Z,17.17
2017-12-03T20:26:05.682Z,16.47
2017-12-03T20:28:34.022Z,15.83
2017-12-03T20:31:01.618Z,15.70
2017-12-03T20:33:30.016Z,17.70
2017-12-03T20:35:57.623Z,18.00
2017-12-03T20:38:25.197Z,16.63
2017-12-03T20:40:52.793Z,16.70
2017-12-03T20:43:20.408Z,14.07
2017-12-03T20:45:48.759Z,15.80
2017-12-03T20:48:16.338Z,19.03
2017-12-03T20:50:43.943Z,17.70
2017-12-03T20:53:11.518Z,17.67
2017-12-03T20:55:39.099Z,20.17
2017-12-03T20:58:06.698Z,22.80
2017-12-03T21:00:35.068Z,16.27
2017-12-03T21:03:02.198Z,13.57
2017-12-03T21:05:28.514Z,16.30
2017-12-03T21:07:54.867Z,17.60
2017-12-03T21:10:21.147Z,19.13
2017-12-03T21:12:47.478Z,15.80
2017-12-03T21:15:13.791Z,16.87
2017-12-03T21:17:40.122Z,16.47
2017-12-03T21:20:06.428Z,16.17
2017-12-03T21:22:33.511Z,15.80
2017-12-03T21:24:59.811Z,20.93
2017-12-03T21:27:26.881Z,12.07
2017-12-03T21:29:53.167Z,17.90
2017-12-03T21:32:19.502Z,16.70
2017-12-03T21:34:45.784Z,17.10
2017-12-03T21:37:12.106Z,21.90
2017-12-03T21:39:39.139Z,14.10
2017-12-03T21:42:05.435Z,15.07
2017-12-03T21:44:31.744Z,16.30
2017-12-03T21:46:58.060Z,22.83
2017-12-03T21:49:24.335Z,20.17
2017-12-03T21:51:50.634Z,16.90
2017-12-03T21:54:16.914Z,18.03
2017-12-03T21:56:43.270Z,22.70
2017-12-03T21:59:09.550Z,23.00
2017-12-03T22:01:36.571Z,13.87
2017-12-03T22:04:02.894Z,12.33
2017-12-03T22:06:29.202Z,18.27
2017-12-03T22:08:55.519Z,12.30
2017-12-03T22:11:21.815Z,12.63
2017-12-03T22:13:48.839Z,16.07
2017-12-03T22:16:15.102Z,11.47
2017-12-03T22:18:41.414Z,12.00
2017-12-03T22:21:08.433Z,11.57
2017-12-03T22:23:34.742Z,11.90
2017-12-03T22:26:01.894Z,14.73
2017-12-03T22:28:28.186Z,13.97
2017-12-03T22:30:55.194Z,15.70
2017-12-03T22:33:21.534Z,17.00
2017-12-03T22:35:47.810Z,15.87
2017-12-03T22:38:14.105Z,17.30
2017-12-03T22:40:40.382Z,15.57
2017-12-03T22:43:06.710Z,16.47
2017-12-03T22:45:33.744Z,16.67
2017-12-03T22:48:00.047Z,21.27
2017-12-03T22:50:26.330Z,20.80
2017-12-03T22:52:52.631Z,19.50
2017-12-03T22:55:18.910Z,18.43
2017-12-03T22:57:45.183Z,13.27
2017-12-03T23:00:11.551Z,15.70
2017-12-03T23:02:37.830Z,14.60
2017-12-03T23:05:04.174Z,15.27
2017-12-03T23:07:30.460Z,13.60
2017-12-03T23:09:56.755Z,14.63
2017-12-03T23:12:23.029Z,12.00
2017-12-03T23:14:50.097Z,11.60
2017-12-03T23:17:16.422Z,11.33
2017-12-03T23:19:42.727Z,13.73
2017-12-03T23:22:08.994Z,11.57
2017-12-03T23:24:35.298Z,10.53
2017-12-03T23:27:01.643Z,9.77
2017-12-03T23:29:28.013Z,11.13
2017-12-03T23:31:54.295Z,11.07
2017-12-03T23:34:20.630Z,10.87
2017-12-03T23:36:46.899Z,11.17
2017-12-03T23:39:13.231Z,11.73
2017-12-03T23:41:39.499Z,10.60
2017-12-03T23:44:06.554Z,10.67
2017-12-03T23:46:33.612Z,12.03
2017-12-03T23:48:59.947Z,10.47
2017-12-03T23:51:26.269Z,12.07
2017-12-03T23:53:52.600Z,9.83
2017-12-03T23:56:18.904Z,10.30
2017-12-03T23:58:45.213Z,8.20
